Montgomery, Indiana
Current Conditions -  °F | °C
As of 8:15 AM on Wednesday 26 Nov 2014 (Local Time) from KDCY Reporting Station
Overcast Overcast  
Wind Chill: 23°   Ceiling: 1400
Heat Index: 30°   Visibility: 10mi
Dew Point: 26°   Wind: 7mph
Humidity: 85%   Direction: 110°ESE
Pressure: 30.14"   Gusts: NA
Location:  38.66°N, 87.05°W
Report Text: KDCY 261415Z AUTO 11006KT 10SM OVC014 M01/M03 A3014 RMK AO2 T10121034
Loading
Personal Weather Stations






























Interactive Weather Map New forecast layout! Learn more

10-Day Weather Forecast

Advertisements
Track Severe Weather on mobile